Time;durP1;ratioP1;P1;durP2;ratioP2;P2;SDS_P1;SDS_P2;PMS_P1;PMS_P2;Temp;Humidity;BMP_temperature;BMP_pressure;BME280_temperature;BME280_humidity;BME280_pressure;Samples;Min_cycle;Max_cycle;Signal;HPM_P1;HPM_P2
2022/11/12 20:29:59;;;;;;;71.07;20.88;;;;;;;5.55;100.00;8366.89;1703184;82;21019;-59
2022/11/12 20:32:45;;;;;;;71.10;21.37;;;;;;;5.54;100.00;8035.33;1677076;84;21536;-59
2022/11/12 20:35:35;;;;;;;;;;;;;;;5.49;100.00;8199.93;1709843;82;21492;-59
2022/11/12 20:38:20;;;;;;;56.18;19.42;;;;;;;5.42;100.00;8529.91;1706233;83;20152;-58
2022/11/12 20:41:06;;;;;;;;;;;;;;;5.38;100.00;8363.36;1708769;83;21675;-59
2022/11/12 20:43:52;;;;;;;31.65;13.90;;;;;;;5.31;100.00;8693.18;1720467;82;21290;-59
2022/11/12 20:46:38;;;;;;;43.23;17.75;;;;;;;5.25;100.00;8691.90;1702775;83;21650;-59
2022/11/12 20:49:24;;;;;;;43.28;16.37;;;;;;;5.21;100.00;8525.60;1703750;82;21071;-59
2022/11/12 20:52:09;;;;;;;46.13;17.23;;;;;;;5.16;100.00;8524.65;1706209;82;21699;-60
2022/11/12 20:54:55;;;;;;;37.63;17.05;;;;;;;5.13;100.00;8358.39;1706669;82;21612;-59
2022/11/12 20:57:40;;;;;;;39.75;18.17;;;;;;;5.11;100.00;8026.96;1725107;82;21175;-59
2022/11/12 21:00:25;;;;;;;40.05;18.50;;;;;;;5.09;100.00;7695.67;1727213;82;28661;-62
2022/11/12 21:03:10;;;;;;;38.13;17.57;;;;;;;5.08;100.00;7199.07;1721098;82;26545;-64
2022/11/12 21:05:59;;;;;;;45.90;18.82;;;;;;;5.06;100.00;6702.39;1730049;82;21134;-63
2022/11/12 21:08:44;;;;;;;38.15;19.17;;;;;;;5.03;100.00;6701.85;1730307;82;21150;-62
2022/11/12 21:11:30;;;;;;;35.80;18.32;;;;;;;5.01;100.00;6536.09;1718410;82;21136;-62
2022/11/12 21:14:15;;;;;;;;;;;;;;;4.99;100.00;6370.43;1718377;83;21087;-62
2022/11/12 21:17:01;;;;;;;53.27;17.00;;;;;;;4.99;100.00;6039.67;1704237;82;20193;-63
2022/11/12 21:19:46;;;;;;;52.38;16.57;;;;;;;5.02;100.00;5378.64;1706996;82;21110;-63
2022/11/12 21:22:32;;;;;;;39.60;14.87;;;;;;;5.05;100.00;4717.76;1705557;82;21099;-62
2022/11/12 21:25:17;;;;;;;27.40;14.75;;;;;;;5.06;100.00;4221.97;1704472;82;21284;-62
2022/11/12 21:28:04;;;;;;;66.82;16.20;;;;;;;5.09;100.00;3561.16;1703927;82;21560;-64
2022/11/12 21:30:51;;;;;;;59.25;16.65;;;;;;;5.06;100.00;3230.33;1707039;82;20983;-65
2022/11/12 21:33:36;;;;;;;53.20;16.55;;;;;;;5.05;100.00;3230.21;1706529;82;21075;-63
2022/11/12 21:36:21;;;;;;;50.67;16.90;;;;;;;5.06;100.00;3065.08;1706745;82;26899;-60
2022/11/12 21:39:07;;;;;;;;;;;;;;;5.05;100.00;3395.46;1719882;82;21275;-60
2022/11/12 21:41:53;;;;;;;41.53;16.50;;;;;;;5.04;100.00;3891.13;1711475;82;20202;-63
2022/11/12 21:44:39;;;;;;;53.00;17.62;;;;;;;5.00;100.00;4386.50;1707119;83;21114;-63
2022/11/12 21:47:24;;;;;;;82.57;17.30;;;;;;;4.99;100.00;4551.58;1707012;83;21095;-61
2022/11/12 21:50:09;;;;;;;46.48;17.35;;;;;;;4.99;100.00;4716.88;1707142;82;21042;-63
2022/11/12 21:52:58;;;;;;;54.27;18.27;;;;;;;4.97;100.00;5047.20;1721087;81;22188;-63
2022/11/12 21:55:43;;;;;;;53.70;18.02;;;;;;;4.94;100.00;4881.52;1723695;82;21056;-62
2022/11/12 21:58:29;;;;;;;42.35;17.23;;;;;;;4.93;100.00;4550.71;1716965;82;21022;-62
2022/11/12 22:01:20;;;;;;;72.92;17.87;;;;;;;4.90;100.00;4550.28;1729789;82;21100;-61
2022/11/12 22:04:07;;;;;;;44.27;16.75;;;;;;;4.87;100.00;4715.27;1716776;82;21098;-62
2022/11/12 22:06:52;;;;;;;37.42;16.05;;;;;;;4.86;100.00;5045.60;1703570;82;21525;-62
2022/11/12 22:09:38;;;;;;;31.17;15.43;;;;;;;4.80;100.00;5210.04;1709554;82;21118;-61
2022/11/12 22:12:24;;;;;;;51.33;16.70;;;;;;;4.72;100.00;5704.70;1722854;82;21122;-62
2022/11/12 22:15:11;;;;;;;49.33;14.68;;;;;;;4.67;100.00;6199.73;1705432;82;21090;-62
2022/11/12 22:17:57;;;;;;;62.78;15.38;;;;;;;4.63;100.00;6694.94;1706745;83;21106;-62
2022/11/12 22:20:45;;;;;;;32.73;13.60;;;;;;;4.58;100.00;6859.43;1707078;82;21797;-63
2022/11/12 22:23:36;;;;;;;48.70;14.20;;;;;;;4.52;100.00;6858.34;1715801;82;21059;-61
2022/11/12 22:26:25;;;;;;;51.53;13.40;;;;;;;4.52;100.00;6858.34;1718836;82;21017;-62
2022/11/12 22:29:10;;;;;;;33.38;14.68;;;;;;;4.48;100.00;6692.25;1721131;81;21051;-62
2022/11/12 22:31:58;;;;;;;29.12;13.38;;;;;;;4.46;100.00;6196.22;1723502;82;21062;-62
2022/11/12 22:34:44;;;;;;;39.75;12.98;;;;;;;4.46;100.00;6030.90;1706822;83;21811;-62
2022/11/12 22:37:29;;;;;;;35.17;13.20;;;;;;;4.45;100.00;5865.59;1724708;82;21122;-61
2022/11/12 22:40:15;;;;;;;41.25;13.35;;;;;;;4.40;100.00;6029.98;1706897;82;21106;-62
2022/11/12 22:43:01;;;;;;;29.55;11.68;;;;;;;4.38;100.00;6029.64;1703816;82;21064;-61
2022/11/12 22:45:46;;;;;;;29.77;13.85;;;;;;;4.35;100.00;6194.34;1704645;83;21130;-62
2022/11/12 22:48:33;;;;;;;28.12;12.93;;;;;;;4.31;100.00;6193.74;1707025;82;21199;-62
2022/11/12 22:51:21;;;;;;;28.38;12.85;;;;;;;4.28;100.00;6193.31;1707101;82;21090;-62
2022/11/12 22:54:14;;;;;;;27.80;12.37;;;;;;;4.26;100.00;6192.97;1705355;82;21106;-62
2022/11/12 22:56:53;;;;;;;22.73;12.58;;;;;;;4.25;100.00;6192.80;1725499;82;21042;-62
2022/11/12 22:59:39;;;;;;;;;;;;;;;4.24;100.00;6027.37;1724708;82;21042;-62
2022/11/12 23:02:24;;;;;;;18.73;10.82;;;;;;;4.24;100.00;5697.12;1699045;83;21169;-61
2022/11/12 23:05:09;;;;;;;20.70;11.08;;;;;;;4.24;100.00;5366.74;1705012;82;21103;-61
2022/11/12 23:07:55;;;;;;;18.10;11.15;;;;;;;4.25;100.00;4871.51;1714322;82;21051;-61
2022/11/12 23:10:40;;;;;;;19.42;11.55;;;;;;;4.25;100.00;4211.11;1714386;82;21083;-61
2022/11/12 23:13:26;;;;;;;;;;;;;;;4.24;100.00;3880.82;1717750;82;21051;-62
2022/11/12 23:16:17;;;;;;;21.40;12.00;;;;;;;4.22;100.00;3715.57;1729343;82;21150;-63
2022/11/12 23:19:02;;;;;;;20.50;11.15;;;;;;;4.21;100.00;3385.36;1727020;82;21532;-61
2022/11/12 23:21:47;;;;;;;18.77;10.30;;;;;;;4.18;100.00;3384.98;1726577;82;21042;-61
2022/11/12 23:24:32;;;;;;;20.00;11.85;;;;;;;4.18;100.00;3219.96;1702908;82;28145;-61
2022/11/12 23:27:17;;;;;;;17.48;10.60;;;;;;;4.19;100.00;2890.06;1703819;82;21063;-62
2022/11/12 23:30:04;;;;;;;;;;;;;;;4.20;100.00;2560.18;1709487;82;22893;-61
2022/11/12 23:32:49;;;;;;;17.42;10.03;;;;;;;4.23;100.00;2230.54;1707264;82;20161;-62
2022/11/12 23:35:36;;;;;;;20.02;11.30;;;;;;;4.23;100.00;1900.59;1704557;82;21074;-61
2022/11/12 23:38:22;;;;;;;21.80;12.15;;;;;;;4.19;100.00;2065.15;1706461;82;21047;-62
2022/11/12 23:41:11;;;;;;;19.57;11.33;;;;;;;4.16;100.00;2394.82;1705656;82;21063;-61
2022/11/12 23:43:56;;;;;;;19.55;11.03;;;;;;;4.16;100.00;2394.82;1706884;82;21615;-61
2022/11/12 23:46:42;;;;;;;20.92;11.53;;;;;;;4.20;100.00;2065.25;1707012;82;21131;-61
2022/11/12 23:49:27;;;;;;;;;;;;;;;4.25;100.00;1570.87;1704608;82;22460;-61
2022/11/12 23:52:13;;;;;;;20.37;11.45;;;;;;;4.29;100.00;1076.39;1701975;82;20146;-63
2022/11/12 23:55:00;;;;;;;24.07;12.88;;;;;;;4.32;100.00;581.77;1702691;82;21051;-61
2022/11/12 23:57:45;;;;;;;23.73;13.32;;;;;;;4.34;100.00;252.13;1718409;82;21525;-61
